CheckWX is a tool to help pilots better visualize weather data.  It is not intended as a substitute for an official pre-flight weather briefing.

20:34:07 UTC

KHST METAR
Homestead ARB Airport
Homestead, Florida, USA
Current

38 mins ago

KHST 201956Z AUTO 06010KT 10SM CLR 25/08 A3005 RMK AO2 SLP179 T02450076
Observed
Nov-20 @ 19:56 UTC
Wind
  • 060° at 10 KTS
Visibility
10 SM
Flight Rules
VFR
Cloud Levels
  • Clear skies
Temperature
25°C / 77°F
Dewpoint
C / 46°F
Humidity
34%
Altimeter
30.05" Hg
Pressure
1017.62 hPa
Previous

2 hours ago

KHST 201856Z AUTO 07006KT 10SM CLR 25/09 A3006 RMK AO2 SLP183 T02460089
Observed
Nov-20 @ 18:56 UTC
Wind
  • 070° at 6 KTS
Visibility
10 SM
Flight Rules
VFR
Cloud Levels
  • Clear skies
Temperature
25°C / 77°F
Dewpoint
C / 48°F
Humidity
36%
Altimeter
30.06" Hg
Pressure
1017.92 hPa
Previous

3 hours ago

KHST 201756Z AUTO 02008KT 10SM CLR 25/07 A3008 RMK AO2 SLP189 T02450067 10245 20130
Observed
Nov-20 @ 17:56 UTC
Wind
  • 020° at 8 KTS
Visibility
10 SM
Flight Rules
VFR
Cloud Levels
  • Clear skies
Temperature
25°C / 77°F
Dewpoint
C / 45°F
Humidity
32%
Altimeter
30.08" Hg
Pressure
1018.62 hPa